Portada
METAR-TAF:

METAR-TAF

Aeroports :

Antananarivo, Madagascar

latitud: 18-48S, longitud: 047-29E, altitud: 1279 m

Observació

L'informe es va fer fa 5 minuts, a les 08:00 UTC
Vent 7 kt amb direcció variable
Temperatura 26°C
Humitat 51%
Pressió 1021 hPa
Visibilitat 10 km o més
Cel ennuvolat a una alçada de 2000 ft

METAR: FMMI 180800Z VRB07KT 9999 BKN020 26/15 Q1021 NOSIG

Hora: 11:05 (08:05 UTC)

Pronòstic

L'informe es va fer fa 3 hores i 5 minuts, a les 05:00 UTC
Pronòstic vàlid del 18 a les 06 UTC al 19 a les 12 UTC
Vent 8 kt del Est/Sud-Est
Visibilitat 10 km o més
Cel ennuvolat a una alçada de 1900 ft
Probabilitat 40% :
Temporalment
l' 18 a les 13 UTC al 18 a les 20 UTC
Visibilitat: 4000 m
tempesta, pluja

TAF: FMMI 180500Z 1806/1912 12008KT 9999 BKN019 PROB40 TEMPO 1813/1820 4000 TSRA

Observacions i pronòstics meteorològics de més de 4000 aeroports (METAR i TAF).

Les estacions disponibles són els punts grocs i vermells al mapa.

Posi el ratolí al punt desitjat per veure el nom de l'estació.

Feu clic per veure les observacions i els pronòstics meteorològics.

Per canviar el mapa: feu clic els botons verds amb una creu de color negre per apropar; al botó verd amb un guió per allunyar la imatge; o en les fletxes verdes per a mapes adjacents.


METAR-TAF: